createdAt,value
2018-03-08T00:04:27.509Z,1.60
2018-03-08T00:09:19.134Z,1.60
2018-03-08T00:14:10.023Z,1.60
2018-03-08T00:19:00.942Z,1.60
2018-03-08T00:23:52.578Z,1.60
2018-03-08T00:28:44.217Z,1.60
2018-03-08T00:33:35.081Z,1.60
2018-03-08T00:38:25.962Z,1.60
2018-03-08T00:43:16.855Z,1.60
2018-03-08T00:48:07.742Z,1.60
2018-03-08T00:52:58.621Z,1.60
2018-03-08T00:57:49.508Z,1.60
2018-03-08T01:02:41.133Z,1.60
2018-03-08T01:07:32.031Z,1.50
2018-03-08T01:12:23.701Z,1.60
2018-03-08T01:17:14.603Z,1.50
2018-03-08T01:22:05.481Z,1.50
2018-03-08T01:26:57.186Z,1.50
2018-03-08T01:31:48.077Z,1.50
2018-03-08T01:36:38.952Z,1.50
2018-03-08T01:41:29.857Z,1.50
2018-03-08T01:46:20.738Z,1.50
2018-03-08T01:51:12.365Z,1.50
2018-03-08T01:56:03.309Z,1.40
2018-03-08T02:00:58.106Z,1.40
2018-03-08T02:05:49.032Z,1.40
2018-03-08T02:10:39.952Z,1.40
2018-03-08T02:15:30.890Z,1.40
2018-03-08T02:20:21.812Z,1.40
2018-03-08T02:25:12.735Z,1.40
2018-03-08T02:30:03.642Z,1.40
2018-03-08T02:34:55.285Z,1.40
2018-03-08T02:39:46.208Z,1.40
2018-03-08T02:44:37.894Z,1.40
2018-03-08T02:49:28.833Z,1.40
2018-03-08T02:54:19.734Z,1.40
2018-03-08T02:59:11.391Z,1.40
2018-03-08T03:04:02.322Z,1.40
2018-03-08T03:08:53.956Z,1.30
2018-03-08T03:13:44.871Z,1.40
2018-03-08T03:18:35.785Z,1.40
2018-03-08T03:23:26.705Z,1.30
2018-03-08T03:28:17.636Z,1.40
2018-03-08T03:33:08.537Z,1.30
2018-03-08T03:38:00.200Z,1.30
2018-03-08T03:42:51.110Z,1.30
2018-03-08T03:47:42.780Z,1.30
2018-03-08T03:52:33.696Z,1.30
2018-03-08T03:57:25.348Z,1.20
2018-03-08T04:02:16.994Z,1.20
2018-03-08T04:07:08.665Z,1.20
2018-03-08T04:11:59.561Z,1.20
2018-03-08T04:16:51.280Z,1.10
2018-03-08T04:21:42.201Z,1.10
2018-03-08T04:26:33.113Z,1.10
2018-03-08T04:31:24.034Z,1.10
2018-03-08T04:36:14.961Z,1.10
2018-03-08T04:41:05.884Z,1.10
2018-03-08T04:45:56.799Z,1.10
2018-03-08T04:50:48.472Z,1.10
2018-03-08T04:55:39.390Z,1.10
2018-03-08T05:00:31.070Z,1.20
2018-03-08T05:05:21.971Z,1.10
2018-03-08T05:10:13.642Z,1.20
2018-03-08T05:15:04.548Z,1.20
2018-03-08T05:19:56.201Z,1.30
2018-03-08T05:24:47.861Z,1.30
2018-03-08T05:29:38.757Z,1.30
2018-03-08T05:34:29.653Z,1.40
2018-03-08T05:39:20.545Z,1.40
2018-03-08T05:44:11.443Z,1.40
2018-03-08T05:49:03.099Z,1.60
2018-03-08T05:53:54.014Z,1.60
2018-03-08T05:58:45.662Z,1.70
2018-03-08T06:03:37.317Z,1.80
2018-03-08T06:08:29.108Z,1.80
2018-03-08T06:13:20.010Z,1.80
2018-03-08T06:18:11.733Z,2.00
2018-03-08T06:23:02.653Z,2.00
2018-03-08T06:27:53.559Z,2.10
2018-03-08T06:32:44.465Z,2.10
2018-03-08T06:37:35.358Z,2.20
2018-03-08T06:42:26.264Z,2.30
2018-03-08T06:47:17.184Z,2.30
2018-03-08T06:52:08.098Z,2.40
2018-03-08T06:56:59.738Z,2.60
2018-03-08T07:01:51.393Z,2.60
2018-03-08T07:06:43.050Z,2.70
2018-03-08T07:11:34.685Z,2.70
2018-03-08T07:16:26.385Z,2.80
2018-03-08T07:21:17.296Z,2.80
2018-03-08T07:26:08.275Z,2.90
2018-03-08T07:30:59.163Z,2.90
2018-03-08T07:35:50.061Z,3.00
2018-03-08T07:40:41.757Z,3.00
2018-03-08T07:45:32.664Z,3.00
2018-03-08T07:50:23.585Z,3.10
2018-03-08T07:55:14.480Z,3.20
2018-03-08T08:00:06.174Z,3.30
2018-03-08T08:05:10.090Z,3.30
2018-03-08T08:10:01.001Z,3.30
2018-03-08T08:14:52.643Z,3.40
2018-03-08T08:19:44.294Z,3.40
2018-03-08T08:24:35.945Z,3.50
2018-03-08T08:29:27.606Z,3.50
2018-03-08T08:34:18.509Z,3.50
2018-03-08T08:39:10.169Z,3.60
2018-03-08T08:44:01.075Z,3.60
2018-03-08T08:48:52.005Z,3.60
2018-03-08T08:53:43.653Z,3.60
2018-03-08T08:58:35.314Z,3.70
2018-03-08T09:03:26.970Z,3.70
2018-03-08T09:08:17.895Z,3.60
2018-03-08T09:13:08.825Z,3.70
2018-03-08T09:17:59.760Z,3.70
2018-03-08T09:22:50.669Z,3.70
2018-03-08T09:27:41.624Z,3.70
2018-03-08T09:32:32.545Z,3.70
2018-03-08T09:37:23.450Z,3.70
2018-03-08T09:42:14.374Z,3.70
2018-03-08T09:47:05.293Z,3.70
2018-03-08T09:51:56.220Z,3.70
2018-03-08T09:56:47.166Z,3.70
2018-03-08T10:01:38.093Z,3.80
2018-03-08T10:06:29.025Z,3.80
2018-03-08T10:11:19.954Z,3.80
2018-03-08T10:26:43.468Z,3.80
2018-03-08T10:31:34.375Z,3.80
2018-03-08T10:36:26.018Z,3.80
2018-03-08T10:41:16.915Z,3.80
2018-03-08T10:46:08.549Z,3.90
2018-03-08T10:51:00.206Z,3.90
2018-03-08T10:55:51.090Z,3.90
2018-03-08T11:00:45.906Z,4.00
2018-03-08T11:05:43.019Z,4.00
2018-03-08T11:10:33.938Z,4.10
2018-03-08T11:15:24.831Z,4.10
2018-03-08T11:20:15.730Z,4.30
2018-03-08T11:25:06.636Z,4.40
2018-03-08T11:29:57.529Z,4.50
2018-03-08T11:34:48.421Z,4.70
2018-03-08T11:39:39.314Z,4.90
2018-03-08T11:44:30.213Z,5.10
2018-03-08T11:49:21.123Z,5.20
2018-03-08T11:54:12.037Z,5.50
2018-03-08T11:59:02.938Z,5.70
2018-03-08T12:03:54.578Z,6.40
2018-03-08T12:08:46.247Z,7.10
2018-03-08T12:13:37.141Z,7.10
2018-03-08T12:18:28.037Z,7.80
2018-03-08T12:23:18.930Z,8.60
2018-03-08T12:28:09.880Z,9.10
2018-03-08T12:33:00.766Z,9.50
2018-03-08T12:37:51.679Z,9.90
2018-03-08T12:42:42.586Z,10.20
2018-03-08T12:47:34.234Z,10.50
2018-03-08T12:52:25.875Z,10.70
2018-03-08T12:57:17.526Z,11.00
2018-03-08T13:02:09.161Z,11.30
2018-03-08T13:07:00.819Z,11.60
2018-03-08T13:11:51.727Z,11.50
2018-03-08T13:16:42.637Z,11.70
2018-03-08T13:21:33.549Z,11.80
2018-03-08T13:26:24.457Z,11.80
2018-03-08T13:31:15.363Z,11.80
2018-03-08T13:36:06.258Z,11.80
2018-03-08T13:40:57.886Z,12.00
2018-03-08T13:45:48.782Z,12.00
2018-03-08T13:50:39.687Z,12.10
2018-03-08T13:55:30.578Z,12.30
2018-03-08T14:00:22.227Z,12.60
2018-03-08T14:05:13.134Z,12.60
2018-03-08T14:10:04.797Z,12.50
2018-03-08T14:14:55.699Z,12.50
2018-03-08T14:19:47.347Z,12.40
2018-03-08T14:24:38.998Z,12.60
2018-03-08T14:29:29.896Z,12.60
2018-03-08T14:34:21.543Z,12.70
2018-03-08T14:39:13.169Z,12.80
2018-03-08T14:44:04.070Z,12.80
2018-03-08T14:48:54.975Z,12.70
2018-03-08T14:53:45.902Z,12.70
2018-03-08T14:58:36.816Z,12.70
2018-03-08T15:03:27.774Z,12.60
2018-03-08T15:08:18.672Z,12.50
2018-03-08T15:13:09.745Z,12.40
2018-03-08T15:18:00.734Z,12.30
2018-03-08T15:22:51.645Z,12.20
2018-03-08T15:27:42.562Z,12.10
2018-03-08T15:32:33.459Z,12.20
2018-03-08T15:37:24.364Z,12.30
2018-03-08T15:42:15.276Z,12.20
2018-03-08T15:47:06.923Z,11.80
2018-03-08T15:51:57.834Z,11.70
2018-03-08T15:56:48.745Z,11.50
2018-03-08T16:01:39.639Z,11.20
2018-03-08T16:06:43.763Z,10.60
2018-03-08T16:11:35.478Z,10.30
2018-03-08T16:16:26.402Z,10.30
2018-03-08T16:21:17.298Z,10.00
2018-03-08T16:26:08.203Z,9.70
2018-03-08T16:30:59.135Z,9.40
2018-03-08T16:35:50.062Z,9.10
2018-03-08T16:40:40.962Z,8.90
2018-03-08T16:45:31.863Z,8.70
2018-03-08T16:50:23.539Z,8.30
2018-03-08T16:55:15.182Z,8.10
2018-03-08T17:00:06.239Z,8.10
2018-03-08T17:04:57.149Z,8.00
2018-03-08T17:09:48.042Z,7.90
2018-03-08T17:14:39.786Z,7.60
2018-03-08T17:19:31.482Z,7.50
2018-03-08T17:24:22.402Z,7.40
2018-03-08T17:29:13.299Z,7.30
2018-03-08T17:34:04.190Z,7.30
2018-03-08T17:38:55.835Z,7.00
2018-03-08T17:43:47.489Z,6.90
2018-03-08T17:48:39.123Z,6.70
2018-03-08T17:53:30.770Z,6.60
2018-03-08T17:58:22.407Z,6.50
2018-03-08T18:03:13.308Z,6.50
2018-03-08T18:08:04.268Z,6.30
2018-03-08T18:12:55.163Z,6.20
2018-03-08T18:17:46.123Z,6.10
2018-03-08T18:22:37.020Z,5.90
2018-03-08T18:27:27.919Z,5.80
2018-03-08T18:32:18.806Z,5.70
2018-03-08T18:37:09.706Z,5.60
2018-03-08T18:42:00.603Z,5.50
2018-03-08T18:46:51.506Z,5.40
2018-03-08T18:51:42.395Z,5.30
2018-03-08T18:56:34.022Z,5.20
2018-03-08T19:01:24.965Z,5.10
2018-03-08T19:06:16.603Z,5.00
2018-03-08T19:11:07.494Z,4.90
2018-03-08T19:15:58.396Z,4.90
2018-03-08T19:20:50.187Z,4.80
2018-03-08T19:25:41.122Z,4.80
2018-03-08T19:30:32.023Z,4.80
2018-03-08T19:35:24.307Z,4.70
2018-03-08T19:40:15.206Z,4.70
2018-03-08T19:45:06.115Z,4.70
2018-03-08T19:49:58.174Z,4.70
2018-03-08T19:54:49.806Z,4.70
2018-03-08T19:59:40.714Z,4.60
2018-03-08T20:04:31.684Z,4.70
2018-03-08T20:09:22.602Z,4.70
2018-03-08T20:14:13.491Z,4.70
2018-03-08T20:19:04.484Z,4.70
2018-03-08T20:23:56.138Z,4.70
2018-03-08T20:28:47.776Z,4.70
2018-03-08T20:33:38.715Z,4.60
2018-03-08T20:38:29.608Z,4.70
2018-03-08T20:43:20.507Z,4.70
2018-03-08T20:48:11.402Z,4.70
2018-03-08T20:53:02.300Z,4.70
2018-03-08T20:57:53.193Z,4.70
2018-03-08T21:02:44.831Z,4.80
2018-03-08T21:07:35.727Z,4.80
2018-03-08T21:12:26.731Z,4.80
2018-03-08T21:17:18.375Z,4.90
2018-03-08T21:22:09.276Z,4.90
2018-03-08T21:27:00.190Z,4.90
2018-03-08T21:31:51.086Z,4.90
2018-03-08T21:36:41.979Z,4.80
2018-03-08T21:41:32.880Z,4.80
2018-03-08T21:46:23.784Z,4.80
2018-03-08T21:51:14.683Z,4.80
2018-03-08T21:56:05.586Z,4.70
2018-03-08T22:00:56.478Z,4.70
2018-03-08T22:05:47.382Z,4.60
2018-03-08T22:10:38.287Z,4.60
2018-03-08T22:15:30.138Z,4.60
2018-03-08T22:20:21.034Z,4.50
2018-03-08T22:25:11.943Z,4.50
2018-03-08T22:30:02.834Z,4.50
2018-03-08T22:34:53.749Z,4.50
2018-03-08T22:39:44.638Z,4.50
2018-03-08T22:44:36.287Z,4.50
2018-03-08T22:49:27.927Z,4.40
2018-03-08T22:54:18.819Z,4.40
2018-03-08T22:59:09.720Z,4.40
2018-03-08T23:04:01.395Z,4.30
2018-03-08T23:08:52.266Z,4.30
2018-03-08T23:13:43.163Z,4.30
2018-03-08T23:18:34.091Z,4.20
2018-03-08T23:23:25.038Z,4.20
2018-03-08T23:28:15.939Z,4.10
2018-03-08T23:33:06.830Z,4.10
2018-03-08T23:37:57.726Z,4.10
2018-03-08T23:42:48.634Z,4.00
2018-03-08T23:47:39.536Z,3.90
2018-03-08T23:52:30.434Z,3.80
2018-03-08T23:57:21.359Z,3.70
